Time;durP1;ratioP1;P1;durP2;ratioP2;P2;SDS_P1;SDS_P2;PMS_P1;PMS_P2;Temp;Humidity;BMP_temperature;BMP_pressure;BME280_temperature;BME280_humidity;BME280_pressure;Samples;Min_cycle;Max_cycle;Signal;HPM_P1;HPM_P2
2023/08/17 00:01:45;;;;;;;;;;;;;;;22.66;48.25;101907.63;4842746;29;114812;-79
2023/08/17 00:04:12;;;;;;;;;;;;;;;22.66;48.34;101907.63;4835739;29;114020;-79
2023/08/17 00:06:38;;;;;;;;;;;;;;;22.65;48.33;101905.88;4837423;29;123151;-80
2023/08/17 00:09:06;;;;;;;;;;;;;;;22.64;48.29;101906.88;4844965;29;124908;-79
2023/08/17 00:11:33;;;;;;;;;;;;;;;22.62;48.33;101911.56;4836688;29;114597;-79
2023/08/17 00:14:00;;;;;;;;;;;;;;;22.62;48.38;101913.38;4847140;29;113270;-79
2023/08/17 00:16:27;;;;;;;;;;;;;;;22.60;48.31;101918.88;4833086;29;123249;-79
2023/08/17 00:18:54;;;;;;;;;;;;;;;22.59;48.46;101921.75;4833348;29;124547;-79
2023/08/17 00:21:21;;;;;;;;;;;;;;;22.58;48.42;101914.59;4839406;29;113163;-79
2023/08/17 00:23:49;;;;;;;;;;;;;;;22.56;48.40;101906.63;4850154;29;113464;-78
2023/08/17 00:26:16;;;;;;;;;;;;;;;22.55;48.34;101913.88;4873891;28;123217;-79
2023/08/17 00:28:44;;;;;;;;;;;;;;;22.55;48.48;101913.00;4854255;29;123492;-79
2023/08/17 00:31:11;;;;;;;;;;;;;;;22.55;48.54;101904.91;4851963;29;112937;-79
2023/08/17 00:33:38;;;;;;;;;;;;;;;22.53;48.46;101899.63;4838964;29;112816;-79
2023/08/17 00:36:07;;;;;;;;;;;;;;;22.53;48.50;101896.09;4844257;29;123753;-79
2023/08/17 00:38:34;;;;;;;;;;;;;;;22.51;48.43;101892.66;4839936;29;124663;-79
2023/08/17 00:41:01;;;;;;;;;;;;;;;22.49;48.40;101894.56;4836393;29;114309;-79
2023/08/17 00:43:28;;;;;;;;;;;;;;;22.46;48.47;101884.03;4851532;29;114714;-79
2023/08/17 00:45:55;;;;;;;;;;;;;;;22.43;48.58;101887.81;4842243;29;124460;-79
2023/08/17 00:48:23;;;;;;;;;;;;;;;22.40;48.49;101879.13;4843518;29;121640;-79
2023/08/17 00:50:52;;;;;;;;;;;;;;;22.35;48.53;101876.78;4842243;29;114100;-79
2023/08/17 00:53:19;;;;;;;;;;;;;;;22.32;48.61;101880.59;4861866;28;112889;-78
2023/08/17 00:55:50;;;;;;;;;;;;;;;22.29;48.57;101872.72;4843885;29;123572;-79
2023/08/17 00:58:17;;;;;;;;;;;;;;;22.26;48.58;101878.34;4866651;28;122925;-79
2023/08/17 01:00:44;;;;;;;;;;;;;;;22.22;48.56;101876.84;4815279;29;113531;-79
2023/08/17 01:03:11;;;;;;;;;;;;;;;22.19;48.63;101877.09;4837302;29;113005;-79
2023/08/17 01:05:38;;;;;;;;;;;;;;;22.15;48.57;101872.91;4833675;29;123520;-79
2023/08/17 01:08:05;;;;;;;;;;;;;;;22.12;48.66;101875.84;4843393;29;123710;-78
2023/08/17 01:10:41;;;;;;;;;;;;;;;22.08;48.70;101879.78;4845152;29;113509;-79
2023/08/17 01:13:11;;;;;;;;;;;;;;;22.04;48.71;101881.84;4866278;28;112808;-79
2023/08/17 01:15:40;;;;;;;;;;;;;;;22.01;48.74;101883.91;4839311;29;124431;-79
2023/08/17 01:18:14;;;;;;;;;;;;;;;21.97;48.81;101886.84;4856155;28;123311;-79
2023/08/17 01:20:42;;;;;;;;;;;;;;;21.96;48.92;101887.84;4857477;28;114358;-79
2023/08/17 01:23:09;;;;;;;;;;;;;;;21.94;48.83;101897.88;4843187;29;113059;-79
2023/08/17 01:25:36;;;;;;;;;;;;;;;21.92;49.03;101891.72;4837323;29;124121;-79
2023/08/17 01:28:04;;;;;;;;;;;;;;;21.89;48.82;101886.56;4858004;28;123236;-79
2023/08/17 01:30:34;;;;;;;;;;;;;;;21.85;48.79;101874.31;4840498;29;115800;-79
2023/08/17 01:33:06;;;;;;;;;;;;;;;21.82;48.78;101879.94;4845087;29;113717;-79
2023/08/17 01:35:43;;;;;;;;;;;;;;;21.77;48.83;101876.72;4838162;29;123434;-79
2023/08/17 01:38:21;;;;;;;;;;;;;;;21.72;48.91;101885.16;4861534;28;122304;-79
2023/08/17 01:40:49;;;;;;;;;;;;;;;21.68;48.91;101877.41;4839331;29;114033;-79
2023/08/17 01:43:16;;;;;;;;;;;;;;;21.63;48.96;101876.91;4834352;29;113980;-79
2023/08/17 01:45:43;;;;;;;;;;;;;;;21.60;48.99;101880.69;4835903;29;124572;-79
2023/08/17 01:48:10;;;;;;;;;;;;;;;21.54;48.85;101879.31;4836690;29;123506;-79
2023/08/17 01:50:37;;;;;;;;;;;;;;;21.50;48.99;101879.66;4838199;29;114661;-79
2023/08/17 01:53:04;;;;;;;;;;;;;;;21.45;49.02;101877.31;4845793;29;113712;-79
2023/08/17 01:55:32;;;;;;;;;;;;;;;21.43;49.13;101871.13;4834654;29;123753;-79
2023/08/17 01:57:59;;;;;;;;;;;;;;;21.41;49.09;101875.78;4864660;28;123606;-79
2023/08/17 02:00:26;;;;;;;;;;;;;;;21.38;49.19;101876.03;4849177;29;113625;-79
2023/08/17 02:02:53;;;;;;;;;;;;;;;21.35;49.25;101878.94;4841817;29;113650;-79
2023/08/17 02:05:20;;;;;;;;;;;;;;;21.34;49.32;101879.91;4839862;29;124244;-79
2023/08/17 02:07:47;;;;;;;;;;;;;;;21.32;49.16;101877.34;4852580;29;124043;-79
2023/08/17 02:10:14;;;;;;;;;;;;;;;21.30;49.30;101878.41;4846462;29;114955;-79
2023/08/17 02:12:41;;;;;;;;;;;;;;;21.28;49.29;101888.44;4837573;29;114230;-79
2023/08/17 02:15:08;;;;;;;;;;;;;;;21.25;49.25;101896.75;4838878;29;124110;-79
2023/08/17 02:17:35;;;;;;;;;;;;;;;21.23;49.28;101893.31;4848999;29;124190;-79
2023/08/17 02:20:03;;;;;;;;;;;;;;;21.21;49.34;101893.44;4844753;29;114757;-79
2023/08/17 02:22:30;;;;;;;;;;;;;;;21.20;49.42;101895.25;4845346;29;115270;-79
2023/08/17 02:24:57;;;;;;;;;;;;;;;21.19;49.41;101898.94;4845603;29;123014;-79
2023/08/17 02:27:24;;;;;;;;;;;;;;;21.19;49.41;101898.94;4867821;28;123902;-79
2023/08/17 02:29:52;;;;;;;;;;;;;;;21.19;49.39;101893.56;4838314;29;114259;-80
2023/08/17 02:32:20;;;;;;;;;;;;;;;21.17;49.40;101884.72;4854400;28;112896;-79
2023/08/17 02:34:47;;;;;;;;;;;;;;;21.16;49.48;101888.38;4821768;29;123366;-79
2023/08/17 02:37:14;;;;;;;;;;;;;;;21.14;49.55;101884.94;4839160;29;124945;-79
2023/08/17 02:39:41;;;;;;;;;;;;;;;21.15;49.52;101881.28;4836079;29;113720;-79
2023/08/17 02:42:08;;;;;;;;;;;;;;;21.15;49.49;101881.28;4863830;28;112449;-79
2023/08/17 02:44:35;;;;;;;;;;;;;;;21.16;49.62;101877.59;4850033;28;123529;-79
2023/08/17 02:47:02;;;;;;;;;;;;;;;21.15;49.58;101875.91;4849232;28;124639;-79
2023/08/17 02:49:29;;;;;;;;;;;;;;;21.14;49.58;101879.56;4841377;29;114374;-79
2023/08/17 02:51:56;;;;;;;;;;;;;;;21.13;49.61;101872.44;4846847;29;113293;-79
2023/08/17 02:54:23;;;;;;;;;;;;;;;21.13;49.57;101866.19;4842095;29;123762;-79
2023/08/17 02:56:50;;;;;;;;;;;;;;;21.12;49.54;101865.34;4854034;28;124248;-79
2023/08/17 02:59:17;;;;;;;;;;;;;;;21.10;49.53;101861.91;4850692;29;114557;-79
2023/08/17 03:01:45;;;;;;;;;;;;;;;21.07;49.61;101862.13;4850714;29;114310;-79
2023/08/17 03:04:13;;;;;;;;;;;;;;;21.06;49.55;101865.78;4849154;29;124693;-79
2023/08/17 03:06:40;;;;;;;;;;;;;;;21.02;49.50;101861.63;4846842;29;123276;-79
2023/08/17 03:09:06;;;;;;;;;;;;;;;21.00;49.55;101860.84;4835666;29;117242;-78
2023/08/17 03:11:34;;;;;;;;;;;;;;;20.97;49.55;101861.06;4838672;29;114932;-79
2023/08/17 03:14:01;;;;;;;;;;;;;;;20.94;49.62;101855.91;4844739;29;122603;-79
2023/08/17 03:16:32;;;;;;;;;;;;;;;20.91;49.61;101861.53;4830566;29;123318;-79
2023/08/17 03:18:59;;;;;;;;;;;;;;;20.88;49.61;101867.13;4845476;29;114915;-79
2023/08/17 03:21:26;;;;;;;;;;;;;;;20.85;49.69;101861.94;4866922;28;113180;-79
2023/08/17 03:23:55;;;;;;;;;;;;;;;20.83;49.74;101863.91;4838376;29;118423;-79
2023/08/17 03:26:22;;;;;;;;;;;;;;;20.79;49.63;101857.88;4845500;29;124230;-79
2023/08/17 03:28:49;;;;;;;;;;;;;;;20.77;49.63;101855.28;4841774;29;114841;-79
2023/08/17 03:31:16;;;;;;;;;;;;;;;20.75;49.82;101861.75;4840482;29;113014;-79
2023/08/17 03:33:43;;;;;;;;;;;;;;;20.73;49.76;101864.56;4837630;29;123467;-79
2023/08/17 03:36:10;;;;;;;;;;;;;;;20.71;49.75;101855.75;4853163;28;123196;-79
2023/08/17 03:38:39;;;;;;;;;;;;;;;20.69;49.85;101863.06;4845444;28;112766;-79
2023/08/17 03:41:06;;;;;;;;;;;;;;;20.68;49.85;101850.59;4844868;28;113311;-79
2023/08/17 03:43:33;;;;;;;;;;;;;;;20.67;50.05;101848.84;4843330;29;123475;-79
2023/08/17 03:46:01;;;;;;;;;;;;;;;20.69;50.03;101852.28;4834666;29;123817;-79
2023/08/17 03:48:28;;;;;;;;;;;;;;;20.69;50.04;101855.00;4842718;28;113761;-79
2023/08/17 03:50:55;;;;;;;;;;;;;;;20.69;50.05;101852.28;4850570;29;112789;-78
2023/08/17 03:53:22;;;;;;;;;;;;;;;20.71;50.12;101861.13;4823016;29;123814;-79
2023/08/17 03:55:50;;;;;;;;;;;;;;;20.70;50.00;101854.03;4861993;28;123969;-79
2023/08/17 03:58:18;;;;;;;;;;;;;;;20.70;50.11;101848.66;4862072;28;114381;-78
2023/08/17 04:00:51;;;;;;;;;;;;;;;20.70;49.97;101854.03;4844811;29;114941;-79
2023/08/17 04:03:24;;;;;;;;;;;;;;;20.70;50.05;101856.72;4845674;28;123740;-79
2023/08/17 04:05:51;;;;;;;;;;;;;;;20.69;50.13;101857.69;4839442;29;124907;-79
2023/08/17 04:08:18;;;;;;;;;;;;;;;20.67;50.10;101856.94;4839180;29;114440;-79
2023/08/17 04:10:45;;;;;;;;;;;;;;;20.65;50.03;101856.19;4864164;28;116050;-79
2023/08/17 04:13:12;;;;;;;;;;;;;;;20.63;50.25;101863.50;4864990;28;124351;-79
2023/08/17 04:15:38;;;;;;;;;;;;;;;20.63;50.00;101863.50;4853369;28;123989;-79
2023/08/17 04:18:05;;;;;;;;;;;;;;;20.61;50.17;101860.06;4846562;29;114089;-79
2023/08/17 04:20:32;;;;;;;;;;;;;;;20.58;50.24;101866.47;4837915;29;114134;-79
2023/08/17 04:22:59;;;;;;;;;;;;;;;20.58;50.19;101865.63;4846547;29;124138;-79
2023/08/17 04:25:26;;;;;;;;;;;;;;;20.55;50.25;101877.50;4838892;29;123810;-79
2023/08/17 04:27:53;;;;;;;;;;;;;;;20.52;50.19;101872.31;4848702;29;114272;-78
2023/08/17 04:30:20;;;;;;;;;;;;;;;20.50;50.23;101876.09;4864036;28;113388;-79
2023/08/17 04:32:54;;;;;;;;;;;;;;;20.48;50.16;101876.19;4849177;29;122987;-79
2023/08/17 04:35:21;;;;;;;;;;;;;;;20.46;50.19;101879.97;4839202;29;123442;-79
2023/08/17 04:37:48;;;;;;;;;;;;;;;20.43;50.31;101881.88;4858955;29;113799;-79
2023/08/17 04:40:15;;;;;;;;;;;;;;;20.41;50.26;101881.13;4886538;28;115775;-79
2023/08/17 04:42:42;;;;;;;;;;;;;;;20.38;50.26;101884.06;4866113;28;124493;-78
2023/08/17 04:45:10;;;;;;;;;;;;;;;20.36;50.33;101886.00;4854938;29;122770;-79
2023/08/17 04:47:40;;;;;;;;;;;;;;;20.34;50.32;101882.56;4852099;29;114398;-79
2023/08/17 04:50:07;;;;;;;;;;;;;;;20.32;50.32;101881.78;4852617;29;113945;-79
2023/08/17 04:52:34;;;;;;;;;;;;;;;20.31;50.35;101877.38;4848747;29;123028;-79
2023/08/17 04:55:02;;;;;;;;;;;;;;;20.30;50.50;101878.34;4856817;28;124176;-79
2023/08/17 04:57:31;;;;;;;;;;;;;;;20.31;50.54;101874.69;4859425;28;112753;-79
2023/08/17 04:59:58;;;;;;;;;;;;;;;20.30;50.37;101878.34;4862852;28;113114;-79
2023/08/17 05:02:25;;;;;;;;;;;;;;;20.30;50.56;101883.72;4839219;29;124217;-79
2023/08/17 05:04:52;;;;;;;;;;;;;;;20.30;50.47;101883.72;4850473;28;123555;-78
2023/08/17 05:07:19;;;;;;;;;;;;;;;20.30;50.54;101883.72;4840053;28;114505;-78
2023/08/17 05:09:46;;;;;;;;;;;;;;;20.31;50.56;101874.69;4843466;28;113140;-78
2023/08/17 05:12:13;;;;;;;;;;;;;;;20.34;50.64;101874.47;4833406;29;125804;-79
2023/08/17 05:14:40;;;;;;;;;;;;;;;20.36;50.70;101872.53;4833227;28;123290;-79
2023/08/17 05:17:08;;;;;;;;;;;;;;;20.38;50.57;101873.28;4862284;28;115076;-79
2023/08/17 05:19:35;;;;;;;;;;;;;;;20.39;50.74;101877.69;4838982;29;114644;-78
2023/08/17 05:22:02;;;;;;;;;;;;;;;20.42;50.74;101882.00;4852381;28;122825;-79
2023/08/17 05:24:29;;;;;;;;;;;;;;;20.46;50.76;101882.66;4836590;29;122573;-78
2023/08/17 05:26:56;;;;;;;;;;;;;;;20.49;50.83;101877.03;4843204;29;114038;-79
2023/08/17 05:29:23;;;;;;;;;;;;;;;20.54;50.74;101885.66;4841263;29;113795;-79
2023/08/17 05:31:50;;;;;;;;;;;;;;;20.58;50.72;101881.78;4841568;29;124168;-78
2023/08/17 05:34:18;;;;;;;;;;;;;;;20.62;50.83;101883.31;4859509;28;122991;-79
2023/08/17 05:36:45;;;;;;;;;;;;;;;20.66;50.77;101874.03;4843360;29;117631;-79
2023/08/17 05:39:13;;;;;;;;;;;;;;;20.68;50.79;101872.13;4847090;28;114366;-78
2023/08/17 05:41:40;;;;;;;;;;;;;;;20.72;50.80;101868.25;4842588;29;122692;-79
2023/08/17 05:44:06;;;;;;;;;;;;;;;20.74;50.77;101871.69;4855962;28;123705;-79
2023/08/17 05:46:33;;;;;;;;;;;;;;;20.77;50.73;101873.28;4837354;29;114659;-78
2023/08/17 05:49:01;;;;;;;;;;;;;;;20.79;50.69;101874.91;4838262;29;112974;-78
2023/08/17 05:51:28;;;;;;;;;;;;;;;20.83;50.81;101880.06;4822009;29;124685;-79
2023/08/17 05:53:56;;;;;;;;;;;;;;;20.85;50.80;101880.81;4831516;29;124419;-79
2023/08/17 05:56:22;;;;;;;;;;;;;;;20.88;50.79;101877.91;4842861;29;114779;-79
2023/08/17 05:58:49;;;;;;;;;;;;;;;20.89;50.70;101885.00;4836589;29;114271;-79
2023/08/17 06:01:16;;;;;;;;;;;;;;;20.91;50.86;101883.94;4835721;29;124235;-79
2023/08/17 06:03:43;;;;;;;;;;;;;;;20.95;50.77;101884.56;4847756;29;124173;-78
2023/08/17 06:06:11;;;;;;;;;;;;;;;21.00;50.77;101895.84;4852837;29;114082;-79
2023/08/17 06:08:37;;;;;;;;;;;;;;;21.04;50.90;101900.06;4860784;28;113997;-79
2023/08/17 06:11:04;;;;;;;;;;;;;;;21.09;50.75;101897.88;4826572;29;123941;-79
2023/08/17 06:13:31;;;;;;;;;;;;;;;21.14;50.82;101895.72;4830400;29;123982;-79
2023/08/17 06:15:58;;;;;;;;;;;;;;;21.17;50.90;101895.50;4848723;29;115358;-79
2023/08/17 06:18:25;;;;;;;;;;;;;;;21.24;50.92;101900.44;4843760;29;113295;-79
2023/08/17 06:20:53;;;;;;;;;;;;;;;21.30;50.84;101899.97;4865734;28;124110;-79
2023/08/17 06:23:20;;;;;;;;;;;;;;;21.35;50.96;101892.41;4842811;28;123103;-79
2023/08/17 06:25:47;;;;;;;;;;;;;;;21.39;50.91;101896.59;4851717;28;114673;-79
2023/08/17 06:28:14;;;;;;;;;;;;;;;21.44;50.92;101897.16;4846784;29;114902;-79
2023/08/17 06:30:41;;;;;;;;;;;;;;;21.49;50.90;101903.06;4831729;29;124000;-79
2023/08/17 06:33:08;;;;;;;;;;;;;;;21.54;50.81;101902.72;4847329;29;124446;-79
2023/08/17 06:35:35;;;;;;;;;;;;;;;21.58;50.83;101905.06;4832132;29;114371;-79
2023/08/17 06:38:03;;;;;;;;;;;;;;;21.63;50.93;101901.19;4837006;29;113719;-79
2023/08/17 06:40:29;;;;;;;;;;;;;;;21.66;50.76;101900.94;4845152;29;125141;-78
2023/08/17 06:42:56;;;;;;;;;;;;;;;21.67;50.76;101903.53;4837840;29;123757;-79
2023/08/17 06:45:23;;;;;;;;;;;;;;;21.67;50.61;101902.66;4838387;29;114957;-79
2023/08/17 06:47:50;;;;;;;;;;;;;;;21.69;50.74;101898.03;4835321;29;113425;-78
2023/08/17 06:50:17;;;;;;;;;;;;;;;21.73;50.74;101896.81;4842992;29;124896;-79
2023/08/17 06:52:44;;;;;;;;;;;;;;;21.75;50.67;101889.47;4843069;29;125253;-79
2023/08/17 06:55:11;;;;;;;;;;;;;;;21.77;50.76;101892.88;4850613;29;113217;-79
2023/08/17 06:57:38;;;;;;;;;;;;;;;21.77;50.78;101892.88;4843585;29;113995;-79
2023/08/17 07:00:05;;;;;;;;;;;;;;;21.79;50.83;101901.72;4859989;28;123817;-79
2023/08/17 07:02:33;;;;;;;;;;;;;;;21.80;50.74;101903.47;4842609;28;123919;-79
2023/08/17 07:05:18;;;;;;;;;;;;;;;21.81;50.70;101898.91;4847387;28;115453;-79
2023/08/17 07:07:45;;;;;;;;;;;;;;;21.79;50.73;101904.41;4847668;29;113739;-78
2023/08/17 07:10:12;;;;;;;;;;;;;;;21.78;50.63;101905.41;4835706;29;124493;-78
2023/08/17 07:12:39;;;;;;;;;;;;;;;21.80;50.69;101914.25;4836157;29;123780;-79
2023/08/17 07:15:06;;;;;;;;;;;;;;;21.80;50.66;101911.56;4860912;28;116364;-79
2023/08/17 07:17:36;;;;;;;;;;;;;;;21.82;50.66;101906.03;4842307;29;114611;-78
2023/08/17 07:20:04;;;;;;;;;;;;;;;21.83;50.73;101907.75;4860907;28;124216;-79
2023/08/17 07:22:34;;;;;;;;;;;;;;;21.85;50.73;101912.06;4842658;29;123184;-78
2023/08/17 07:25:02;;;;;;;;;;;;;;;21.86;50.89;101913.78;4844791;29;114505;-79
2023/08/17 07:27:29;;;;;;;;;;;;;;;21.90;50.81;101926.03;4850957;29;113532;-79
2023/08/17 07:29:56;;;;;;;;;;;;;;;21.90;50.84;101915.25;4861780;28;125665;-79
2023/08/17 07:32:24;;;;;;;;;;;;;;;21.90;50.73;101920.66;4842085;29;125024;-79
2023/08/17 07:34:51;;;;;;;;;;;;;;;21.90;50.77;101920.66;4827709;29;113751;-79
2023/08/17 07:37:19;;;;;;;;;;;;;;;21.91;50.82;101922.38;4845213;29;113640;-78
2023/08/17 07:39:46;;;;;;;;;;;;;;;21.91;50.78;101922.38;4836626;29;124208;-79
2023/08/17 07:42:13;;;;;;;;;;;;;;;21.89;50.70;101921.66;4846173;29;123584;-78
2023/08/17 07:44:40;;;;;;;;;;;;;;;21.92;50.75;101923.25;4838035;29;115134;-79
2023/08/17 07:47:07;;;;;;;;;;;;;;;21.92;50.79;101918.69;4849182;28;113665;-79
2023/08/17 07:49:34;;;;;;;;;;;;;;;21.92;50.73;101918.69;4836803;29;125032;-79
2023/08/17 07:52:01;;;;;;;;;;;;;;;21.90;50.79;101904.47;4861428;28;123976;-79
2023/08/17 07:54:28;;;;;;;;;;;;;;;21.93;50.89;101909.63;4847878;29;114357;-79
2023/08/17 07:56:55;;;;;;;;;;;;;;;21.95;50.89;101910.38;4839268;29;113930;-79
2023/08/17 07:59:22;;;;;;;;;;;;;;;21.96;50.87;101914.81;4845660;29;124494;-79
2023/08/17 08:01:48;;;;;;;;;;;;;;;21.99;50.78;101920.94;4838777;29;124518;-79
2023/08/17 08:04:15;;;;;;;;;;;;;;;22.00;50.84;101925.34;4836661;29;115646;-79
2023/08/17 08:06:42;;;;;;;;;;;;;;;21.99;50.66;101924.50;4837433;29;113877;-78
2023/08/17 08:09:09;;;;;;;;;;;;;;;21.97;50.78;101921.91;4860374;28;123587;-79
2023/08/17 08:11:36;;;;;;;;;;;;;;;21.97;50.86;101932.69;4843619;29;123876;-79
2023/08/17 08:14:03;;;;;;;;;;;;;;;22.01;50.92;101927.09;4855821;28;114516;-79
2023/08/17 08:16:30;;;;;;;;;;;;;;;22.03;50.90;101933.22;4837391;29;114174;-79
2023/08/17 08:18:57;;;;;;;;;;;;;;;22.05;50.89;101939.34;4863671;28;123445;-79
2023/08/17 08:21:26;;;;;;;;;;;;;;;22.05;50.81;101928.56;4844150;29;123607;-79
2023/08/17 08:23:53;;;;;;;;;;;;;;;22.04;50.87;101937.63;4837937;29;114248;-79
2023/08/17 08:26:20;;;;;;;;;;;;;;;22.04;50.79;101932.22;4843172;29;113082;-79
2023/08/17 08:28:47;;;;;;;;;;;;;;;22.05;50.77;101931.25;4847668;28;123525;-79
2023/08/17 08:31:14;;;;;;;;;;;;;;;22.06;50.92;101935.69;4832688;29;123879;-79
2023/08/17 08:33:41;;;;;;;;;;;;;;;22.09;50.94;101930.03;4835745;29;113956;-79
2023/08/17 08:36:07;;;;;;;;;;;;;;;22.11;51.08;101922.69;4840246;29;113350;-79
2023/08/17 08:38:34;;;;;;;;;;;;;;;22.14;50.88;101914.38;4845635;29;123013;-79
2023/08/17 08:41:02;;;;;;;;;;;;;;;22.13;50.85;101926.13;4838854;29;123717;-79
2023/08/17 08:43:29;;;;;;;;;;;;;;;22.13;50.91;101928.81;4852693;28;115160;-79
2023/08/17 08:45:57;;;;;;;;;;;;;;;22.15;50.84;101934.97;4851517;28;113329;-79
2023/08/17 08:48:25;;;;;;;;;;;;;;;22.14;50.82;101934.09;4839006;29;124735;-79
2023/08/17 08:50:54;;;;;;;;;;;;;;;22.14;50.90;101922.47;4843843;29;123972;-79
2023/08/17 08:53:29;;;;;;;;;;;;;;;22.13;50.80;101931.53;4842060;29;115298;-79
2023/08/17 08:56:03;;;;;;;;;;;;;;;22.15;50.95;101924.16;4845216;29;115431;-79
2023/08/17 08:58:31;;;;;;;;;;;;;;;22.14;50.99;101934.09;4865202;28;123052;-79
2023/08/17 09:00:58;;;;;;;;;;;;;;;22.16;51.10;101920.50;4838585;29;123428;-79
2023/08/17 09:03:26;;;;;;;;;;;;;;;22.19;51.03;101920.28;4837303;29;114999;-79
2023/08/17 09:05:53;;;;;;;;;;;;;;;22.22;51.03;101920.03;4855257;28;113670;-79
2023/08/17 09:08:28;;;;;;;;;;;;;;;22.24;51.07;101917.22;4843672;29;124855;-79
2023/08/17 09:10:56;;;;;;;;;;;;;;;22.29;51.04;101915.06;4830575;29;124143;-79
2023/08/17 09:13:22;;;;;;;;;;;;;;;22.33;51.02;101917.38;4838496;29;114606;-79
2023/08/17 09:15:49;;;;;;;;;;;;;;;22.36;51.01;101910.91;4837490;29;113312;-79
2023/08/17 09:18:17;;;;;;;;;;;;;;;22.37;51.02;101918.00;4839253;29;123804;-79
2023/08/17 09:20:46;;;;;;;;;;;;;;;22.40;51.11;101908.81;4830650;29;124705;-79
2023/08/17 09:23:15;;;;;;;;;;;;;;;22.40;51.17;101906.13;4837062;29;114631;-79
2023/08/17 09:25:43;;;;;;;;;;;;;;;22.43;51.16;101905.88;4860814;28;113833;-79
2023/08/17 09:28:11;;;;;;;;;;;;;;;22.43;51.03;101901.31;4835878;29;124392;-79
2023/08/17 09:31:09;;;;;;;;;;;;;;;22.45;51.13;101898.50;4845918;29;125236;-79
2023/08/17 09:33:36;;;;;;;;;;;;;;;22.48;51.09;101903.66;4848970;28;113532;-79
2023/08/17 09:36:02;;;;;;;;;;;;;;;22.51;51.16;101888.09;4849907;29;113273;-79
2023/08/17 09:38:29;;;;;;;;;;;;;;;22.56;51.33;101893.13;4836957;29;124880;-79
2023/08/17 09:40:57;;;;;;;;;;;;;;;22.62;51.23;101898.06;4836455;29;124350;-80
2023/08/17 09:43:27;;;;;;;;;;;;;;;22.65;51.13;101900.50;4837602;29;114898;-79
2023/08/17 09:45:55;;;;;;;;;;;;;;;22.66;51.07;101896.81;4835367;29;114708;-79
2023/08/17 09:48:24;;;;;;;;;;;;;;;22.69;51.46;101891.16;4844441;29;124128;-79
2023/08/17 09:50:51;;;;;;;;;;;;;;;22.77;51.16;101889.69;4860434;28;123737;-79
2023/08/17 09:53:18;;;;;;;;;;;;;;;22.83;51.32;101889.19;4836514;29;114287;-79
2023/08/17 09:55:46;;;;;;;;;;;;;;;22.90;51.02;101893.13;4835734;29;113631;-79
2023/08/17 09:58:14;;;;;;;;;;;;;;;22.95;51.02;101899.00;4838313;29;124575;-79
2023/08/17 10:00:46;;;;;;;;;;;;;;;22.98;51.19;101890.69;4838980;29;124964;-79
2023/08/17 10:03:17;;;;;;;;;;;;;;;23.04;51.21;101890.19;4843956;29;115213;-79
2023/08/17 10:05:47;;;;;;;;;;;;;;;23.08;50.95;101891.66;4838442;29;113919;-79
2023/08/17 10:08:18;;;;;;;;;;;;;;;23.15;50.99;101891.16;4861011;28;123475;-79
2023/08/17 10:10:45;;;;;;;;;;;;;;;23.23;51.35;101888.69;4842852;29;123915;-79
2023/08/17 10:13:34;;;;;;;;;;;;;;;23.32;51.27;101885.25;4841989;29;114263;-79
2023/08/17 10:16:08;;;;;;;;;;;;;;;23.41;51.27;101881.75;4850319;29;113246;-79
2023/08/17 10:18:56;;;;;;;;;;;;;;;23.44;50.98;101876.09;4841210;28;124331;-79
2023/08/17 10:21:27;;;;;;;;;;;;;;;23.48;50.98;101882.94;4835228;29;124422;-79
2023/08/17 10:23:57;;;;;;;;;;;;;;;23.50;50.85;101878.28;4823704;29;113666;-79
2023/08/17 10:26:25;;;;;;;;;;;;;;;23.49;50.81;101871.16;4861084;28;113965;-79
2023/08/17 10:28:54;;;;;;;;;;;;;;;23.49;51.06;101868.47;4839737;29;124801;-79
2023/08/17 10:31:21;;;;;;;;;;;;;;;23.49;50.79;101868.47;4837808;29;123681;-79
2023/08/17 10:33:49;;;;;;;;;;;;;;;23.51;50.97;101871.03;4847311;28;114384;-79
2023/08/17 10:36:16;;;;;;;;;;;;;;;23.50;50.96;101867.47;4837907;29;114672;-79
2023/08/17 10:38:43;;;;;;;;;;;;;;;23.50;50.96;101870.16;4837389;29;124547;-79
2023/08/17 10:41:11;;;;;;;;;;;;;;;23.52;50.94;101857.38;4847137;29;124963;-79
2023/08/17 10:43:52;;;;;;;;;;;;;;;23.52;50.94;101862.78;4840662;29;114556;-79
2023/08/17 10:46:19;;;;;;;;;;;;;;;23.54;50.86;101864.50;4836204;29;113586;-79
2023/08/17 10:48:46;;;;;;;;;;;;;;;23.57;51.12;101864.25;4828374;29;124445;-79
2023/08/17 10:51:13;;;;;;;;;;;;;;;23.61;51.06;101868.41;4836693;29;124743;-79
2023/08/17 10:53:43;;;;;;;;;;;;;;;23.63;50.96;101874.56;4848460;29;114410;-79
2023/08/17 10:56:13;;;;;;;;;;;;;;;23.64;50.83;101870.84;4843429;29;112877;-79
2023/08/17 10:58:42;;;;;;;;;;;;;;;23.64;50.70;101865.44;4849101;29;125222;-79
2023/08/17 11:01:10;;;;;;;;;;;;;;;23.65;50.82;101867.16;4836742;29;124432;-79
2023/08/17 11:03:37;;;;;;;;;;;;;;;23.68;50.89;101866.91;4848941;29;114572;-79
2023/08/17 11:06:15;;;;;;;;;;;;;;;23.70;50.76;101864.94;4844392;29;114537;-79
2023/08/17 11:08:53;;;;;;;;;;;;;;;23.69;50.97;101869.47;4846303;28;123474;-79
2023/08/17 11:11:21;;;;;;;;;;;;;;;23.71;50.96;101872.06;4865542;28;124366;-79
2023/08/17 11:13:49;;;;;;;;;;;;;;;23.73;50.80;101874.63;4847037;29;113358;-79
2023/08/17 11:16:23;;;;;;;;;;;;;;;23.75;50.82;101862.69;4841911;29;114148;-79
2023/08/17 11:18:51;;;;;;;;;;;;;;;23.78;50.91;101873.25;4832407;29;125009;-79
2023/08/17 11:21:18;;;;;;;;;;;;;;;23.83;50.82;101860.22;4837670;29;123181;-79
2023/08/17 11:23:46;;;;;;;;;;;;;;;23.85;50.97;101868.22;4838245;29;114896;-79
2023/08/17 11:26:17;;;;;;;;;;;;;;;23.89;51.04;101872.38;4838009;29;114571;-76
2023/08/17 11:28:44;;;;;;;;;;;;;;;23.93;50.99;101878.38;4836508;29;124321;-79
2023/08/17 11:31:13;;;;;;;;;;;;;;;23.98;50.82;101876.13;4845418;28;123274;-78
2023/08/17 11:33:40;;;;;;;;;;;;;;;24.01;50.73;101878.59;4842760;29;114528;-79
2023/08/17 11:36:08;;;;;;;;;;;;;;;24.02;50.76;101880.31;4840517;29;113749;-79
2023/08/17 11:38:36;;;;;;;;;;;;;;;24.02;50.67;101881.16;4830403;29;123049;-79
2023/08/17 11:41:03;;;;;;;;;;;;;;;24.01;50.88;101884.00;4857651;28;124994;-79
2023/08/17 11:43:31;;;;;;;;;;;;;;;24.02;50.69;101885.72;4838313;29;114783;-79
2023/08/17 11:46:00;;;;;;;;;;;;;;;24.03;50.94;101876.59;4860477;28;113176;-79
2023/08/17 11:48:27;;;;;;;;;;;;;;;24.04;50.84;101878.34;4838278;29;124150;-79
2023/08/17 11:50:55;;;;;;;;;;;;;;;24.00;50.77;101876.88;4841660;29;124652;-79
2023/08/17 11:53:22;;;;;;;;;;;;;;;23.94;50.76;101877.38;4840359;29;113677;-79
2023/08/17 11:55:49;;;;;;;;;;;;;;;23.89;50.82;101865.09;4858435;28;113692;-79
2023/08/17 11:58:35;;;;;;;;;;;;;;;23.92;50.92;101873.94;4850276;29;124022;-79
2023/08/17 12:01:02;;;;;;;;;;;;;;;23.92;50.84;101871.25;4837799;29;123255;-79
2023/08/17 12:03:30;;;;;;;;;;;;;;;23.92;51.00;101873.94;4866759;28;114239;-79
2023/08/17 12:05:57;;;;;;;;;;;;;;;23.95;50.98;101868.28;4858887;28;113368;-79
2023/08/17 12:08:24;;;;;;;;;;;;;;;24.01;51.26;101867.75;4851926;29;124594;-78
2023/08/17 12:10:52;;;;;;;;;;;;;;;24.08;51.11;101864.38;4840828;29;124839;-77
2023/08/17 12:13:18;;;;;;;;;;;;;;;24.14;51.14;101865.69;4845783;29;115683;-77
2023/08/17 12:15:45;;;;;;;;;;;;;;;24.17;50.97;101868.16;4838033;29;114518;-78
2023/08/17 12:18:15;;;;;;;;;;;;;;;24.20;50.93;101869.72;4863006;28;124764;-78
2023/08/17 12:20:42;;;;;;;;;;;;;;;24.22;51.08;101871.34;4863460;28;122250;-78
2023/08/17 12:23:12;;;;;;;;;;;;;;;24.23;51.04;101870.31;4838836;29;115064;-78
2023/08/17 12:25:39;;;;;;;;;;;;;;;24.23;51.01;101864.91;4835270;29;113455;-78
2023/08/17 12:28:06;;;;;;;;;;;;;;;24.22;50.84;101868.63;4830086;29;125285;-78
2023/08/17 12:30:35;;;;;;;;;;;;;;;24.21;51.03;101872.31;4830057;29;124033;-77
2023/08/17 12:33:03;;;;;;;;;;;;;;;24.21;50.91;101864.19;4838596;29;114424;-78